Time;durP1;ratioP1;P1;durP2;ratioP2;P2;SDS_P1;SDS_P2;PMS_P1;PMS_P2;Temp;Humidity;BMP_temperature;BMP_pressure;BME280_temperature;BME280_humidity;BME280_pressure;Samples;Min_cycle;Max_cycle;Signal;HPM_P1;HPM_P2
2022/07/03 00:00:46;;;;;;;;;;;28.50;36.10;;;;;;5043049;28;950;-36
2022/07/03 00:03:18;;;;;;;;;;;28.50;36.20;;;;;;5042813;28;883;-39
2022/07/03 00:05:45;;;;;;;;;;;28.50;36.40;;;;;;5042965;28;845;-39
2022/07/03 00:08:16;;;;;;;;;;;28.40;36.40;;;;;;5043305;28;2412;-46
2022/07/03 00:13:54;;;;;;;;;;;28.40;36.80;;;;;;5035768;28;1800;-45
2022/07/03 00:16:28;;;;;;;;;;;28.40;36.80;;;;;;5043260;28;1908;-46
2022/07/03 00:19:03;;;;;;;;;;;28.30;36.80;;;;;;5043175;28;1447;-45
2022/07/03 00:21:35;;;;;;;;;;;28.30;36.90;;;;;;5042099;28;2472;-45
2022/07/03 00:24:11;;;;;;;;;;;28.30;36.90;;;;;;5003458;28;1554;-45
2022/07/03 00:26:46;;;;;;;;;;;28.30;37.00;;;;;;5000159;28;977;-45
2022/07/03 00:29:15;;;;;;;;;;;28.30;37.00;;;;;;5003562;28;962;-46
2022/07/03 00:31:46;;;;;;;;;;;28.30;37.10;;;;;;5002917;28;1013;-45
2022/07/03 00:34:16;;;;;;;;;;;28.30;37.00;;;;;;5002877;28;1898;-45
2022/07/03 00:36:45;;;;;;;;;;;28.20;37.20;;;;;;5001769;28;1431;-46
2022/07/03 00:39:22;;;;;;;;;;;28.30;37.20;;;;;;5003078;28;1033;-45
2022/07/03 00:42:05;;;;;;;;;;;28.30;37.20;;;;;;5002691;28;1103;-45
2022/07/03 00:44:34;;;;;;;;;;;28.30;37.30;;;;;;5002552;28;1481;-44
2022/07/03 00:47:07;;;;;;;;;;;28.20;37.30;;;;;;5002589;28;1005;-45
2022/07/03 00:49:50;;;;;;;;;;;28.20;37.50;;;;;;5001193;28;1155;-41
2022/07/03 00:52:24;;;;;;;;;;;28.20;37.60;;;;;;5002832;28;2359;-41
2022/07/03 00:54:56;;;;;;;;;;;28.10;37.50;;;;;;5002300;28;2092;-45
2022/07/03 00:57:29;;;;;;;;;;;28.20;37.70;;;;;;5002805;28;1894;-41
2022/07/03 01:00:09;;;;;;;;;;;28.20;37.70;;;;;;5001774;28;1111;-41
2022/07/03 01:02:51;;;;;;;;;;;28.20;37.60;;;;;;5002408;28;1510;-40
2022/07/03 01:05:28;;;;;;;;;;;28.20;37.60;;;;;;5002583;28;1446;-41
2022/07/03 01:10:55;;;;;;;;;;;28.20;37.70;;;;;;4992672;28;1673;-41
2022/07/03 01:13:29;;;;;;;;;;;28.40;37.50;;;;;;5001974;28;1356;-46
2022/07/03 01:16:04;;;;;;;;;;;28.50;37.20;;;;;;5001548;28;1879;-39
2022/07/03 01:18:41;;;;;;;;;;;28.50;37.20;;;;;;5002166;28;1145;-39
2022/07/03 01:21:10;;;;;;;;;;;28.60;37.10;;;;;;5001974;28;1067;-45
2022/07/03 01:23:58;;;;;;;;;;;28.60;37.10;;;;;;5035742;28;1834;-43
2022/07/03 01:26:30;;;;;;;;;;;28.60;37.30;;;;;;5041048;28;1389;-39
2022/07/03 01:29:06;;;;;;;;;;;28.60;37.40;;;;;;5041450;28;911;-40
2022/07/03 01:31:36;;;;;;;;;;;28.60;37.40;;;;;;5041437;28;1608;-43
2022/07/03 01:34:07;;;;;;;;;;;28.60;37.30;;;;;;5041647;28;951;-43
2022/07/03 01:36:38;;;;;;;;;;;28.60;37.50;;;;;;5041170;28;1992;-45
2022/07/03 01:39:15;;;;;;;;;;;28.60;37.60;;;;;;5041088;28;1301;-44
2022/07/03 01:41:46;;;;;;;;;;;28.70;37.60;;;;;;5041402;28;1087;-40
2022/07/03 01:44:15;;;;;;;;;;;28.60;37.80;;;;;;5041541;28;1033;-39
2022/07/03 01:46:47;;;;;;;;;;;28.60;37.80;;;;;;5041393;28;2020;-44
2022/07/03 01:49:16;;;;;;;;;;;28.60;37.80;;;;;;5041493;28;750;-43
2022/07/03 01:51:50;;;;;;;;;;;28.60;37.80;;;;;;5041323;28;2564;-44
2022/07/03 01:54:19;;;;;;;;;;;28.60;37.80;;;;;;5041163;28;1468;-44
2022/07/03 01:56:50;;;;;;;;;;;28.60;37.70;;;;;;5040840;28;1911;-39
2022/07/03 01:59:27;;;;;;;;;;;28.60;37.80;;;;;;5040826;28;1049;-40
2022/07/03 02:02:08;;;;;;;;;;;28.60;37.80;;;;;;5040440;28;1007;-44
2022/07/03 02:04:35;;;;;;;;;;;28.70;37.80;;;;;;5041649;28;930;-43
2022/07/03 02:07:05;;;;;;;;;;;28.70;37.70;;;;;;5039630;28;703;-42
2022/07/03 02:09:35;;;;;;;;;;;28.70;37.80;;;;;;5039138;28;1004;-43
2022/07/03 02:12:05;;;;;;;;;;;28.70;38.30;;;;;;5039084;28;985;-43
2022/07/03 02:14:33;;;;;;;;;;;28.70;37.80;;;;;;5039094;28;950;-43
2022/07/03 02:17:04;;;;;;;;;;;28.70;37.70;;;;;;5039174;28;1962;-44
2022/07/03 02:19:35;;;;;;;;;;;28.60;37.80;;;;;;5039337;28;1012;-43
2022/07/03 02:22:02;;;;;;;;;;;28.70;37.80;;;;;;5038580;28;1153;-43
2022/07/03 02:24:34;;;;;;;;;;;28.70;37.70;;;;;;5038322;28;1057;-43
2022/07/03 02:27:04;;;;;;;;;;;28.70;37.80;;;;;;5039310;28;980;-43
2022/07/03 02:29:34;;;;;;;;;;;28.60;37.80;;;;;;5038784;28;1001;-43
2022/07/03 02:32:03;;;;;;;;;;;28.70;37.80;;;;;;5038818;28;958;-43
2022/07/03 02:34:30;;;;;;;;;;;28.70;37.80;;;;;;5038935;28;962;-43
2022/07/03 02:37:00;;;;;;;;;;;28.70;37.80;;;;;;5038166;28;1974;-44
2022/07/03 02:39:30;;;;;;;;;;;28.70;37.80;;;;;;5038567;28;1033;-43
2022/07/03 02:41:59;;;;;;;;;;;28.70;37.70;;;;;;5038755;28;954;-43
2022/07/03 02:44:27;;;;;;;;;;;28.70;37.80;;;;;;5038610;28;964;-43
2022/07/03 02:50:11;;;;;;;;;;;28.60;37.80;;;;;;5038166;28;1011;-43
2022/07/03 02:52:48;;;;;;;;;;;28.70;38.00;;;;;;5038941;28;1067;-43
2022/07/03 02:55:21;;;;;;;;;;;28.70;37.80;;;;;;5035483;28;1927;-44
2022/07/03 02:57:52;;;;;;;;;;;28.70;37.80;;;;;;5038619;28;986;-42
2022/07/03 03:00:19;;;;;;;;;;;28.70;37.70;;;;;;5038329;28;1009;-43
2022/07/03 03:02:52;;;;;;;;;;;28.70;37.70;;;;;;5038473;28;1013;-44
2022/07/03 03:05:26;;;;;;;;;;;28.70;37.80;;;;;;5038411;28;934;-43
2022/07/03 03:07:57;;;;;;;;;;;28.80;37.80;;;;;;5037820;28;993;-44
2022/07/03 03:10:24;;;;;;;;;;;28.70;37.80;;;;;;5038089;28;1040;-42
2022/07/03 03:12:53;;;;;;;;;;;28.70;37.80;;;;;;5040580;28;1037;-43
2022/07/03 03:15:21;;;;;;;;;;;28.70;37.80;;;;;;5042539;28;1981;-39
2022/07/03 03:17:50;;;;;;;;;;;28.70;37.80;;;;;;5042412;28;953;-40
2022/07/03 03:20:18;;;;;;;;;;;28.60;37.90;;;;;;5042156;28;918;-39
2022/07/03 03:22:55;;;;;;;;;;;28.70;38.00;;;;;;5042339;28;1179;-37
2022/07/03 03:25:22;;;;;;;;;;;28.80;38.00;;;;;;5042297;28;1029;-39
2022/07/03 03:27:49;;;;;;;;;;;28.80;37.80;;;;;;5042781;28;990;-39
2022/07/03 03:30:16;;;;;;;;;;;28.70;37.80;;;;;;5041956;28;992;-39
2022/07/03 03:32:42;;;;;;;;;;;28.70;37.80;;;;;;5042083;28;978;-39
2022/07/03 03:35:10;;;;;;;;;;;28.70;37.80;;;;;;5041948;28;1898;-40
2022/07/03 03:37:36;;;;;;;;;;;28.70;38.00;;;;;;5042148;28;942;-39
2022/07/03 03:40:05;;;;;;;;;;;28.70;38.00;;;;;;5041463;28;938;-39
2022/07/03 03:42:31;;;;;;;;;;;28.70;38.00;;;;;;5041787;28;926;-40
2022/07/03 03:44:58;;;;;;;;;;;28.60;38.10;;;;;;5041821;28;932;-39
2022/07/03 03:47:25;;;;;;;;;;;28.70;38.00;;;;;;5041711;28;1029;-39
2022/07/03 03:49:51;;;;;;;;;;;28.70;38.00;;;;;;5041796;28;943;-39
2022/07/03 03:52:18;;;;;;;;;;;28.70;38.00;;;;;;5042101;28;950;-38
2022/07/03 03:54:45;;;;;;;;;;;28.80;38.10;;;;;;5041943;28;974;-39
2022/07/03 03:57:17;;;;;;;;;;;28.70;38.00;;;;;;5042003;28;1914;-39
2022/07/03 03:59:44;;;;;;;;;;;28.80;38.00;;;;;;5041890;28;990;-39
2022/07/03 04:02:12;;;;;;;;;;;28.80;37.90;;;;;;5041440;28;1004;-39
2022/07/03 04:04:39;;;;;;;;;;;28.80;38.00;;;;;;5041472;28;1013;-40
2022/07/03 04:07:05;;;;;;;;;;;28.80;37.90;;;;;;5041821;28;1032;-39
2022/07/03 04:09:32;;;;;;;;;;;28.80;38.00;;;;;;5041732;28;993;-39
2022/07/03 04:11:58;;;;;;;;;;;28.80;38.10;;;;;;5041439;28;1005;-39
2022/07/03 04:14:26;;;;;;;;;;;28.80;38.20;;;;;;5041611;28;934;-39
2022/07/03 04:16:53;;;;;;;;;;;28.80;38.10;;;;;;5041098;28;1977;-39
2022/07/03 04:19:20;;;;;;;;;;;28.80;38.00;;;;;;5041185;28;1028;-40
2022/07/03 04:21:47;;;;;;;;;;;28.80;38.00;;;;;;5041500;28;1120;-39
2022/07/03 04:24:13;;;;;;;;;;;28.70;38.10;;;;;;5041250;28;993;-39
2022/07/03 04:26:40;;;;;;;;;;;28.70;38.20;;;;;;5041691;28;985;-38
2022/07/03 04:29:07;;;;;;;;;;;28.80;38.10;;;;;;5041159;28;1186;-38
2022/07/03 04:31:35;;;;;;;;;;;28.80;38.10;;;;;;5041008;28;1061;-39
2022/07/03 04:34:02;;;;;;;;;;;28.80;38.20;;;;;;5041196;28;949;-38
2022/07/03 04:36:29;;;;;;;;;;;28.80;38.10;;;;;;5041155;28;1915;-39
2022/07/03 04:38:56;;;;;;;;;;;28.80;38.10;;;;;;5041408;28;970;-39
2022/07/03 04:41:22;;;;;;;;;;;28.80;38.30;;;;;;5041101;28;1013;-39
2022/07/03 04:43:49;;;;;;;;;;;28.80;38.20;;;;;;5040433;28;985;-39
2022/07/03 04:46:16;;;;;;;;;;;28.80;38.20;;;;;;5041262;28;930;-39
2022/07/03 04:48:44;;;;;;;;;;;28.90;38.20;;;;;;5040708;28;1011;-39
2022/07/03 04:51:11;;;;;;;;;;;28.90;38.10;;;;;;5040478;28;1005;-39
2022/07/03 04:53:37;;;;;;;;;;;28.80;38.20;;;;;;5040947;28;1001;-40
2022/07/03 04:56:04;;;;;;;;;;;28.70;38.20;;;;;;5040497;28;1979;-40
2022/07/03 04:58:31;;;;;;;;;;;28.80;38.40;;;;;;5040613;28;968;-39
2022/07/03 05:00:58;;;;;;;;;;;28.80;39.40;;;;;;5039564;28;916;-40
2022/07/03 05:03:24;;;;;;;;;;;28.70;38.40;;;;;;5038001;28;989;-39
2022/07/03 05:05:52;;;;;;;;;;;28.70;38.40;;;;;;5040275;28;974;-39
2022/07/03 05:08:20;;;;;;;;;;;28.80;38.50;;;;;;5040070;28;1040;-40
2022/07/03 05:10:47;;;;;;;;;;;28.70;38.40;;;;;;5040021;28;1027;-40
2022/07/03 05:13:13;;;;;;;;;;;28.80;38.40;;;;;;5039898;28;969;-40
2022/07/03 05:15:40;;;;;;;;;;;28.70;38.50;;;;;;5040250;28;1976;-40
2022/07/03 05:18:07;;;;;;;;;;;28.80;38.40;;;;;;5040074;28;969;-40
2022/07/03 05:20:34;;;;;;;;;;;28.70;38.40;;;;;;5039726;28;930;-40
2022/07/03 05:23:03;;;;;;;;;;;28.80;38.50;;;;;;5039924;28;1112;-40
2022/07/03 05:25:30;;;;;;;;;;;28.80;38.40;;;;;;5039836;28;978;-40
2022/07/03 05:27:58;;;;;;;;;;;28.80;38.40;;;;;;5040204;28;986;-39
2022/07/03 05:30:25;;;;;;;;;;;28.80;38.40;;;;;;5040008;28;914;-39
2022/07/03 05:32:52;;;;;;;;;;;28.70;38.50;;;;;;5039706;28;921;-39
2022/07/03 05:35:19;;;;;;;;;;;28.60;38.60;;;;;;5039102;28;1021;-39
2022/07/03 05:37:46;;;;;;;;;;;28.70;38.70;;;;;;5039682;28;1910;-40
2022/07/03 05:40:14;;;;;;;;;;;28.70;38.50;;;;;;5039381;28;969;-40
2022/07/03 05:42:41;;;;;;;;;;;28.80;38.50;;;;;;5039876;28;988;-39
2022/07/03 05:45:09;;;;;;;;;;;28.90;38.40;;;;;;5040141;28;1004;-40
2022/07/03 05:47:35;;;;;;;;;;;28.90;38.40;;;;;;5036766;28;1008;-40
2022/07/03 05:50:02;;;;;;;;;;;28.90;38.60;;;;;;5036732;28;1057;-39
2022/07/03 05:52:29;;;;;;;;;;;28.90;38.40;;;;;;5038562;28;949;-39
2022/07/03 05:54:55;;;;;;;;;;;28.90;38.40;;;;;;5039471;28;926;-39
2022/07/03 05:57:23;;;;;;;;;;;28.80;38.40;;;;;;5038960;28;1901;-40
2022/07/03 05:59:50;;;;;;;;;;;28.90;38.50;;;;;;5038819;28;1001;-40
2022/07/03 06:02:17;;;;;;;;;;;28.90;38.50;;;;;;5038449;28;997;-40
2022/07/03 06:04:44;;;;;;;;;;;28.90;38.40;;;;;;5039106;28;1018;-40
2022/07/03 06:07:10;;;;;;;;;;;28.90;38.50;;;;;;5038774;28;930;-39
2022/07/03 06:09:37;;;;;;;;;;;28.80;38.50;;;;;;5038965;28;1007;-39
2022/07/03 06:12:04;;;;;;;;;;;28.80;38.70;;;;;;5038899;28;941;-39
2022/07/03 06:14:32;;;;;;;;;;;28.70;38.70;;;;;;5038751;28;1029;-40
2022/07/03 06:16:59;;;;;;;;;;;28.70;38.70;;;;;;5033613;28;1988;-40
2022/07/03 06:19:26;;;;;;;;;;;28.70;38.90;;;;;;5037834;28;962;-43
2022/07/03 06:21:52;;;;;;;;;;;28.80;38.90;;;;;;5038689;28;1060;-42
2022/07/03 06:24:19;;;;;;;;;;;28.90;38.60;;;;;;5034087;28;996;-39
2022/07/03 06:26:46;;;;;;;;;;;29.00;38.40;;;;;;5038900;28;1104;-39
2022/07/03 06:29:12;;;;;;;;;;;29.00;38.60;;;;;;5038329;28;946;-39
2022/07/03 06:31:40;;;;;;;;;;;28.90;38.60;;;;;;5038260;28;1858;-45
2022/07/03 06:34:07;;;;;;;;;;;28.90;38.50;;;;;;5038439;28;1013;-44
2022/07/03 06:36:34;;;;;;;;;;;28.90;38.50;;;;;;5038882;28;1898;-44
2022/07/03 06:39:01;;;;;;;;;;;28.80;38.90;;;;;;5038391;28;1013;-44
2022/07/03 06:41:28;;;;;;;;;;;28.80;39.00;;;;;;5038260;28;1001;-43
2022/07/03 06:43:54;;;;;;;;;;;28.80;38.80;;;;;;5038165;28;1037;-43
2022/07/03 06:46:21;;;;;;;;;;;28.80;39.00;;;;;;5032653;28;942;-44
2022/07/03 06:48:49;;;;;;;;;;;28.80;38.90;;;;;;5038204;28;1024;-44
2022/07/03 06:51:16;;;;;;;;;;;28.90;38.70;;;;;;5035133;28;1020;-44
2022/07/03 06:53:42;;;;;;;;;;;28.90;38.90;;;;;;5037537;28;1006;-39
2022/07/03 06:56:09;;;;;;;;;;;28.80;38.90;;;;;;5033377;28;1977;-39
2022/07/03 06:58:36;;;;;;;;;;;28.90;38.90;;;;;;5037616;28;1043;-39
2022/07/03 07:01:03;;;;;;;;;;;28.90;38.90;;;;;;5038069;28;1025;-39
2022/07/03 07:03:29;;;;;;;;;;;28.80;38.80;;;;;;5037888;28;890;-39
2022/07/03 07:05:58;;;;;;;;;;;28.90;39.00;;;;;;5038203;28;950;-39
2022/07/03 07:08:24;;;;;;;;;;;28.90;39.10;;;;;;5038064;28;899;-43
2022/07/03 07:10:51;;;;;;;;;;;28.80;39.10;;;;;;5037170;28;946;-44
2022/07/03 07:13:18;;;;;;;;;;;29.00;38.90;;;;;;5037416;28;1017;-45
2022/07/03 07:15:45;;;;;;;;;;;28.90;38.90;;;;;;5035159;28;1248;-45
2022/07/03 07:18:11;;;;;;;;;;;28.90;40.20;;;;;;5037209;28;1910;-43
2022/07/03 07:20:38;;;;;;;;;;;28.80;39.10;;;;;;5035186;28;1024;-44
2022/07/03 07:23:07;;;;;;;;;;;28.80;39.10;;;;;;5037108;28;1285;-43
2022/07/03 07:25:33;;;;;;;;;;;28.80;39.10;;;;;;5035002;28;985;-44
2022/07/03 07:28:00;;;;;;;;;;;28.80;39.10;;;;;;5037355;28;1843;-44
2022/07/03 07:30:27;;;;;;;;;;;28.80;39.10;;;;;;5037718;28;1787;-46
2022/07/03 07:32:53;;;;;;;;;;;28.80;39.10;;;;;;5037058;28;969;-45
2022/07/03 07:35:21;;;;;;;;;;;28.90;39.10;;;;;;5035677;28;2087;-45
2022/07/03 07:37:48;;;;;;;;;;;28.90;38.90;;;;;;5020157;28;1906;-45
2022/07/03 07:40:16;;;;;;;;;;;29.00;39.10;;;;;;5017599;28;950;-45
2022/07/03 07:42:43;;;;;;;;;;;28.90;39.00;;;;;;5017865;28;1024;-44
2022/07/03 07:45:10;;;;;;;;;;;28.90;39.20;;;;;;5017821;28;962;-45
2022/07/03 07:47:38;;;;;;;;;;;28.90;39.20;;;;;;5018179;28;974;-45
2022/07/03 07:50:05;;;;;;;;;;;28.80;39.20;;;;;;5018435;28;1025;-46
2022/07/03 07:52:32;;;;;;;;;;;28.90;39.10;;;;;;5017537;28;939;-44
2022/07/03 07:54:58;;;;;;;;;;;29.00;39.00;;;;;;5017586;28;942;-45
2022/07/03 07:57:33;;;;;;;;;;;29.00;40.20;;;;;;5016564;28;1902;-44
2022/07/03 08:00:04;;;;;;;;;;;29.00;39.00;;;;;;5018782;28;1065;-44
2022/07/03 08:08:00;;;;;;;;;;;29.00;39.00;;;;;;5019685;28;617;-43
2022/07/03 08:10:27;;;;;;;;;;;29.00;39.00;;;;;;5020598;28;1034;-39
2022/07/03 08:12:55;;;;;;;;;;;29.00;39.00;;;;;;5020202;28;990;-44
2022/07/03 08:15:22;;;;;;;;;;;28.90;39.20;;;;;;5019636;28;958;-40
2022/07/03 08:17:49;;;;;;;;;;;28.90;40.50;;;;;;5020780;28;1894;-39
2022/07/03 08:20:15;;;;;;;;;;;28.90;39.30;;;;;;5019746;28;931;-40
2022/07/03 08:22:42;;;;;;;;;;;28.90;39.40;;;;;;5020136;28;1191;-40
2022/07/03 08:25:09;;;;;;;;;;;28.90;39.30;;;;;;5020276;28;1017;-40
2022/07/03 08:27:36;;;;;;;;;;;28.90;39.50;;;;;;5020595;28;1025;-40
2022/07/03 08:30:05;;;;;;;;;;;28.90;39.30;;;;;;5020089;28;1012;-41
2022/07/03 08:32:32;;;;;;;;;;;28.90;39.30;;;;;;5019086;28;969;-40
2022/07/03 08:34:58;;;;;;;;;;;28.90;39.30;;;;;;5018921;28;1027;-39
2022/07/03 08:37:26;;;;;;;;;;;28.90;39.30;;;;;;5019113;28;1968;-39
2022/07/03 08:39:53;;;;;;;;;;;28.90;39.40;;;;;;5018265;28;1003;-39
2022/07/03 08:42:20;;;;;;;;;;;29.00;39.20;;;;;;5018051;28;997;-39
2022/07/03 08:44:47;;;;;;;;;;;29.00;39.30;;;;;;5017850;28;1006;-40
2022/07/03 08:47:16;;;;;;;;;;;28.90;39.40;;;;;;5018219;28;946;-39
2022/07/03 08:49:43;;;;;;;;;;;29.10;39.40;;;;;;5019363;28;963;-40
2022/07/03 08:52:10;;;;;;;;;;;29.10;39.30;;;;;;5015954;28;919;-40
2022/07/03 08:54:38;;;;;;;;;;;29.10;39.20;;;;;;5018639;28;935;-43
2022/07/03 08:57:06;;;;;;;;;;;29.20;39.10;;;;;;5018729;28;1965;-42
2022/07/03 08:59:35;;;;;;;;;;;29.20;39.10;;;;;;5018137;28;943;-42
2022/07/03 09:02:04;;;;;;;;;;;29.30;39.00;;;;;;5018699;28;986;-42
2022/07/03 09:04:32;;;;;;;;;;;29.30;38.90;;;;;;5019200;28;963;-43
2022/07/03 09:06:59;;;;;;;;;;;29.30;38.80;;;;;;5018788;28;1009;-43
2022/07/03 09:09:26;;;;;;;;;;;29.40;38.80;;;;;;5018629;28;1072;-42
2022/07/03 09:11:53;;;;;;;;;;;29.30;38.70;;;;;;5018725;28;1091;-42
2022/07/03 09:14:20;;;;;;;;;;;29.40;38.80;;;;;;5019032;28;943;-43
2022/07/03 09:16:47;;;;;;;;;;;29.30;38.70;;;;;;5018856;28;962;-43
2022/07/03 09:19:13;;;;;;;;;;;29.40;38.60;;;;;;5018439;28;1044;-43
2022/07/03 09:21:43;;;;;;;;;;;29.40;38.60;;;;;;5017971;28;1120;-43
2022/07/03 09:24:10;;;;;;;;;;;29.40;38.60;;;;;;5019251;28;914;-43
2022/07/03 09:26:37;;;;;;;;;;;29.40;38.70;;;;;;5018395;28;942;-45
2022/07/03 09:29:04;;;;;;;;;;;29.40;38.60;;;;;;5017849;28;990;-43
2022/07/03 09:31:32;;;;;;;;;;;29.40;38.60;;;;;;5019043;28;995;-43
2022/07/03 09:33:59;;;;;;;;;;;29.40;38.60;;;;;;5018919;28;958;-43
2022/07/03 09:36:44;;;;;;;;;;;29.40;38.70;;;;;;5019636;28;958;-42
2022/07/03 09:39:17;;;;;;;;;;;29.40;38.50;;;;;;5018113;28;1961;-44
2022/07/03 09:41:54;;;;;;;;;;;29.50;38.60;;;;;;5018947;28;1004;-43
2022/07/03 09:44:29;;;;;;;;;;;29.40;38.60;;;;;;5018617;28;1104;-44
2022/07/03 09:47:06;;;;;;;;;;;29.40;38.50;;;;;;5018005;28;1017;-45
2022/07/03 09:49:44;;;;;;;;;;;29.40;38.70;;;;;;5018116;28;1053;-44
2022/07/03 09:52:26;;;;;;;;;;;29.40;38.70;;;;;;5018590;28;1046;-42
2022/07/03 09:54:53;;;;;;;;;;;29.40;38.60;;;;;;5017772;28;1033;-39
2022/07/03 09:57:20;;;;;;;;;;;29.40;38.70;;;;;;5017957;28;1984;-43
2022/07/03 09:59:47;;;;;;;;;;;29.50;38.60;;;;;;5017677;28;1003;-44
2022/07/03 10:02:13;;;;;;;;;;;29.50;38.60;;;;;;5017513;28;959;-41
2022/07/03 10:04:40;;;;;;;;;;;29.60;38.60;;;;;;5017344;28;935;-40
2022/07/03 10:07:07;;;;;;;;;;;29.50;38.60;;;;;;5016500;28;831;-40
2022/07/03 10:09:35;;;;;;;;;;;29.60;38.50;;;;;;5016993;28;894;-40
2022/07/03 10:12:03;;;;;;;;;;;29.50;38.60;;;;;;5017307;28;1026;-40
2022/07/03 10:14:31;;;;;;;;;;;29.50;38.80;;;;;;5016662;28;954;-40
2022/07/03 10:16:59;;;;;;;;;;;29.40;39.00;;;;;;5017566;28;997;-39
2022/07/03 10:19:27;;;;;;;;;;;29.30;39.10;;;;;;5016981;28;2017;-39
2022/07/03 10:21:54;;;;;;;;;;;29.40;39.10;;;;;;5016228;28;1254;-39
2022/07/03 10:24:25;;;;;;;;;;;29.40;39.20;;;;;;5017023;28;1027;-39
2022/07/03 10:26:54;;;;;;;;;;;29.40;39.20;;;;;;5017398;28;1012;-40
2022/07/03 10:29:21;;;;;;;;;;;29.40;39.20;;;;;;5017251;28;902;-39
2022/07/03 10:31:49;;;;;;;;;;;29.40;39.10;;;;;;5017599;28;994;-39
2022/07/03 10:34:17;;;;;;;;;;;29.40;39.20;;;;;;5016576;28;957;-42
2022/07/03 10:36:44;;;;;;;;;;;29.50;39.40;;;;;;5016421;28;985;-44
2022/07/03 10:39:13;;;;;;;;;;;29.50;39.30;;;;;;5017094;28;1906;-44
2022/07/03 10:47:26;;;;;;;;;;;29.50;39.10;;;;;;5016757;28;683;-42
2022/07/03 10:50:01;;;;;;;;;;;29.30;39.30;;;;;;5017053;28;1176;-42
2022/07/03 10:52:28;;;;;;;;;;;29.40;39.20;;;;;;5017283;28;939;-42
2022/07/03 10:54:57;;;;;;;;;;;29.40;39.50;;;;;;5016881;28;966;-42
2022/07/03 10:57:24;;;;;;;;;;;29.40;39.30;;;;;;5015879;28;1914;-42
2022/07/03 11:00:00;;;;;;;;;;;29.40;39.50;;;;;;5016866;28;999;-41
2022/07/03 11:02:28;;;;;;;;;;;29.40;39.50;;;;;;5016515;28;974;-42
2022/07/03 11:05:05;;;;;;;;;;;29.40;39.20;;;;;;5015826;28;1144;-42
2022/07/03 11:07:32;;;;;;;;;;;29.50;38.90;;;;;;5016280;28;994;-42
2022/07/03 11:10:14;;;;;;;;;;;29.50;38.80;;;;;;5016439;28;1009;-42
2022/07/03 11:12:57;;;;;;;;;;;29.50;38.80;;;;;;5015547;28;1509;-42
2022/07/03 11:15:28;;;;;;;;;;;29.60;38.40;;;;;;5016715;28;926;-43
2022/07/03 11:18:14;;;;;;;;;;;29.50;38.60;;;;;;5015722;28;1915;-42
2022/07/03 11:20:59;;;;;;;;;;;29.50;38.60;;;;;;5015860;28;1154;-42
2022/07/03 11:23:29;;;;;;;;;;;29.50;38.60;;;;;;5016414;28;1231;-40
2022/07/03 11:25:58;;;;;;;;;;;29.70;38.70;;;;;;5016519;28;1006;-40
2022/07/03 11:28:43;;;;;;;;;;;29.70;37.90;;;;;;5016955;28;938;-40
2022/07/03 11:31:22;;;;;;;;;;;29.70;38.00;;;;;;5016022;28;1020;-40
2022/07/03 11:33:51;;;;;;;;;;;29.80;37.90;;;;;;5018259;28;993;-40
2022/07/03 11:36:26;;;;;;;;;;;29.80;38.90;;;;;;5019926;28;1038;-40
2022/07/03 11:39:09;;;;;;;;;;;29.90;37.90;;;;;;5018284;28;1898;-40
2022/07/03 11:41:44;;;;;;;;;;;29.80;37.60;;;;;;5020011;28;975;-40
2022/07/03 11:44:14;;;;;;;;;;;29.80;37.40;;;;;;5020007;28;681;-41
2022/07/03 11:46:47;;;;;;;;;;;29.80;37.60;;;;;;5020709;28;1002;-40
2022/07/03 11:49:14;;;;;;;;;;;29.90;37.60;;;;;;5020608;28;1013;-40
2022/07/03 11:51:43;;;;;;;;;;;30.00;37.50;;;;;;5020522;28;1098;-40
2022/07/03 11:54:09;;;;;;;;;;;29.90;37.40;;;;;;5020667;28;1025;-41
2022/07/03 11:56:38;;;;;;;;;;;29.90;37.20;;;;;;5019321;28;938;-43
2022/07/03 11:59:06;;;;;;;;;;;29.90;37.40;;;;;;5020213;28;1906;-42
2022/07/03 12:01:33;;;;;;;;;;;29.90;37.40;;;;;;5019301;28;945;-41
2022/07/03 12:04:05;;;;;;;;;;;29.90;37.60;;;;;;5019949;28;989;-41
2022/07/03 12:06:36;;;;;;;;;;;29.90;37.40;;;;;;5019642;28;1021;-40
2022/07/03 12:09:03;;;;;;;;;;;29.90;37.40;;;;;;5019737;28;1005;-41
2022/07/03 12:11:29;;;;;;;;;;;29.90;37.40;;;;;;5019330;28;1012;-41
2022/07/03 12:13:56;;;;;;;;;;;30.00;37.30;;;;;;5019460;28;1080;-39
2022/07/03 12:16:32;;;;;;;;;;;30.00;37.30;;;;;;5018592;28;1001;-42
2022/07/03 12:19:03;;;;;;;;;;;30.00;37.60;;;;;;5019927;28;1898;-40
2022/07/03 12:21:37;;;;;;;;;;;29.90;37.20;;;;;;5013673;28;996;-39
2022/07/03 12:24:09;;;;;;;;;;;30.00;37.20;;;;;;5018539;28;941;-41
2022/07/03 12:26:37;;;;;;;;;;;30.00;37.20;;;;;;5017628;28;1001;-42
2022/07/03 12:29:04;;;;;;;;;;;30.10;37.20;;;;;;5018697;28;977;-41
2022/07/03 12:31:31;;;;;;;;;;;30.10;37.40;;;;;;5017643;28;1731;-41
2022/07/03 12:33:59;;;;;;;;;;;30.10;37.90;;;;;;5017964;28;996;-41
2022/07/03 12:36:26;;;;;;;;;;;30.10;38.00;;;;;;5015598;28;1769;-40
2022/07/03 12:38:54;;;;;;;;;;;30.10;37.70;;;;;;5016470;28;1898;-40
2022/07/03 12:41:22;;;;;;;;;;;30.10;37.80;;;;;;5018627;28;1016;-40
2022/07/03 12:43:49;;;;;;;;;;;30.10;37.70;;;;;;5018164;28;866;-40
2022/07/03 12:46:19;;;;;;;;;;;30.10;37.70;;;;;;5018203;28;1034;-40
2022/07/03 12:48:47;;;;;;;;;;;30.10;37.90;;;;;;5018687;28;1053;-40
2022/07/03 12:51:14;;;;;;;;;;;30.00;37.80;;;;;;5019056;28;935;-41
2022/07/03 12:53:41;;;;;;;;;;;30.00;38.10;;;;;;5018018;28;969;-40
2022/07/03 12:56:10;;;;;;;;;;;30.00;37.70;;;;;;5015323;28;899;-39
2022/07/03 13:01:26;;;;;;;;;;;30.20;37.60;;;;;;5018739;28;922;-41
2022/07/03 13:03:53;;;;;;;;;;;30.10;37.10;;;;;;5018013;28;962;-41
2022/07/03 13:06:21;;;;;;;;;;;30.10;37.80;;;;;;5017907;28;939;-40
2022/07/03 13:08:51;;;;;;;;;;;30.10;37.60;;;;;;5018637;28;974;-41
2022/07/03 13:11:27;;;;;;;;;;;30.20;37.30;;;;;;5018077;28;1018;-40
2022/07/03 13:13:55;;;;;;;;;;;30.20;37.40;;;;;;5018272;28;717;-40
2022/07/03 13:16:25;;;;;;;;;;;30.20;37.50;;;;;;5018225;28;1553;-40
2022/07/03 13:19:02;;;;;;;;;;;30.10;37.80;;;;;;5018494;28;1979;-41
2022/07/03 13:21:29;;;;;;;;;;;30.20;37.30;;;;;;5018025;28;1166;-39
2022/07/03 13:23:56;;;;;;;;;;;30.20;37.50;;;;;;5018341;28;1011;-40
2022/07/03 13:26:23;;;;;;;;;;;30.20;37.40;;;;;;5018429;28;955;-40
2022/07/03 13:28:51;;;;;;;;;;;30.20;37.60;;;;;;5018390;28;1004;-40
2022/07/03 13:31:18;;;;;;;;;;;30.30;37.20;;;;;;5017540;28;1986;-40
2022/07/03 13:33:45;;;;;;;;;;;30.30;37.10;;;;;;5018043;28;1002;-40
2022/07/03 13:36:11;;;;;;;;;;;30.30;37.00;;;;;;5017095;28;997;-40
2022/07/03 13:38:40;;;;;;;;;;;30.30;36.90;;;;;;5018375;28;1906;-40
2022/07/03 13:41:07;;;;;;;;;;;30.10;37.10;;;;;;5035616;28;1453;-40
2022/07/03 13:43:33;;;;;;;;;;;30.20;37.00;;;;;;5038057;28;929;-40
2022/07/03 13:46:02;;;;;;;;;;;30.20;36.80;;;;;;5036485;28;1027;-40
2022/07/03 13:48:29;;;;;;;;;;;30.20;36.80;;;;;;5037216;28;1012;-40
2022/07/03 13:50:55;;;;;;;;;;;30.20;36.70;;;;;;5037731;28;1081;-38
2022/07/03 13:53:22;;;;;;;;;;;30.10;36.80;;;;;;5037864;28;869;-37
2022/07/03 13:55:49;;;;;;;;;;;30.10;36.90;;;;;;5036330;28;945;-38
2022/07/03 13:58:16;;;;;;;;;;;30.30;36.70;;;;;;5033940;28;1906;-38
2022/07/03 14:00:42;;;;;;;;;;;30.30;36.60;;;;;;5034846;28;1799;-38
2022/07/03 14:03:11;;;;;;;;;;;30.40;36.60;;;;;;5034409;28;989;-37
2022/07/03 14:05:37;;;;;;;;;;;30.30;36.40;;;;;;5034789;28;1031;-38
2022/07/03 14:08:04;;;;;;;;;;;30.30;36.40;;;;;;5035785;28;984;-38
2022/07/03 14:10:31;;;;;;;;;;;30.40;36.40;;;;;;5034402;28;993;-39
2022/07/03 14:12:58;;;;;;;;;;;30.40;36.20;;;;;;5034986;28;1012;-39
2022/07/03 14:15:25;;;;;;;;;;;30.50;36.10;;;;;;5034641;28;992;-40
2022/07/03 14:17:51;;;;;;;;;;;30.50;36.10;;;;;;5035670;28;961;-37
2022/07/03 14:20:19;;;;;;;;;;;30.50;36.10;;;;;;5036641;28;1899;-37
2022/07/03 14:22:46;;;;;;;;;;;30.40;36.20;;;;;;5036771;28;1035;-37
2022/07/03 14:25:13;;;;;;;;;;;30.40;36.20;;;;;;5036998;28;1021;-37
2022/07/03 14:33:09;;;;;;;;;;;30.50;36.10;;;;;;5036831;28;616;-37
2022/07/03 14:35:38;;;;;;;;;;;30.50;36.30;;;;;;5036651;28;974;-37
2022/07/03 14:38:05;;;;;;;;;;;30.50;36.20;;;;;;5036993;28;941;-38
2022/07/03 14:40:32;;;;;;;;;;;30.60;36.10;;;;;;5036069;28;1906;-38
2022/07/03 14:42:58;;;;;;;;;;;30.50;35.60;;;;;;5036857;28;933;-38
2022/07/03 14:45:25;;;;;;;;;;;30.40;35.10;;;;;;5036240;28;985;-38
2022/07/03 14:47:52;;;;;;;;;;;30.40;34.90;;;;;;5035810;28;1001;-38
2022/07/03 14:50:19;;;;;;;;;;;30.40;34.80;;;;;;5036129;28;1096;-38
2022/07/03 14:52:47;;;;;;;;;;;30.30;34.60;;;;;;5034863;28;969;-38
2022/07/03 14:55:14;;;;;;;;;;;30.30;34.70;;;;;;5034805;28;968;-38
2022/07/03 14:57:44;;;;;;;;;;;30.20;35.00;;;;;;5035441;28;1005;-39
2022/07/03 15:00:13;;;;;;;;;;;30.10;35.10;;;;;;5035134;28;1912;-38
2022/07/03 15:02:50;;;;;;;;;;;30.10;35.10;;;;;;5034759;28;2037;-38
2022/07/03 15:05:17;;;;;;;;;;;30.20;35.40;;;;;;5033975;28;977;-38
2022/07/03 15:07:44;;;;;;;;;;;30.20;35.20;;;;;;5033206;28;985;-38
2022/07/03 15:10:15;;;;;;;;;;;30.20;35.00;;;;;;5033437;28;985;-38
2022/07/03 15:12:42;;;;;;;;;;;30.30;34.80;;;;;;5034213;28;1016;-39
2022/07/03 15:15:11;;;;;;;;;;;30.40;34.30;;;;;;5032953;28;1040;-38